sensor_id;sensor_type;location;lat;lon;timestamp;P1;durP1;ratioP1;P2;durP2;ratioP2
71806;SDS011;59655;42.590;23.364;2023-08-06T00:00:02;6.55;;;3.90;;
71806;SDS011;59655;42.590;23.364;2023-08-06T00:02:28;7.85;;;4.03;;
71806;SDS011;59655;42.590;23.364;2023-08-06T00:04:53;7.00;;;4.15;;
71806;SDS011;59655;42.590;23.364;2023-08-06T00:07:19;9.20;;;4.07;;
71806;SDS011;59655;42.590;23.364;2023-08-06T00:09:44;9.68;;;4.28;;
71806;SDS011;59655;42.590;23.364;2023-08-06T00:12:10;8.55;;;4.40;;
71806;SDS011;59655;42.590;23.364;2023-08-06T00:14:35;9.38;;;4.22;;
71806;SDS011;59655;42.590;23.364;2023-08-06T00:17:00;6.57;;;3.88;;
71806;SDS011;59655;42.590;23.364;2023-08-06T00:19:26;7.57;;;4.07;;
71806;SDS011;59655;42.590;23.364;2023-08-06T00:21:51;5.70;;;3.35;;
71806;SDS011;59655;42.590;23.364;2023-08-06T00:24:16;7.90;;;3.50;;
71806;SDS011;59655;42.590;23.364;2023-08-06T00:26:42;7.75;;;3.85;;
71806;SDS011;59655;42.590;23.364;2023-08-06T00:29:07;5.90;;;3.50;;
71806;SDS011;59655;42.590;23.364;2023-08-06T00:31:33;8.88;;;4.00;;
71806;SDS011;59655;42.590;23.364;2023-08-06T00:33:58;5.60;;;3.80;;
71806;SDS011;59655;42.590;23.364;2023-08-06T00:36:23;6.47;;;3.33;;
71806;SDS011;59655;42.590;23.364;2023-08-06T00:38:49;8.32;;;4.03;;
71806;SDS011;59655;42.590;23.364;2023-08-06T00:41:14;4.50;;;3.33;;
71806;SDS011;59655;42.590;23.364;2023-08-06T00:43:39;7.53;;;3.90;;
71806;SDS011;59655;42.590;23.364;2023-08-06T00:46:05;7.07;;;4.00;;
71806;SDS011;59655;42.590;23.364;2023-08-06T00:48:31;5.93;;;3.85;;
71806;SDS011;59655;42.590;23.364;2023-08-06T00:50:56;5.78;;;3.80;;
71806;SDS011;59655;42.590;23.364;2023-08-06T00:53:22;6.57;;;3.72;;
71806;SDS011;59655;42.590;23.364;2023-08-06T00:55:48;8.00;;;3.65;;
71806;SDS011;59655;42.590;23.364;2023-08-06T00:58:13;7.95;;;4.00;;
71806;SDS011;59655;42.590;23.364;2023-08-06T01:00:40;7.80;;;4.07;;
71806;SDS011;59655;42.590;23.364;2023-08-06T01:03:06;7.00;;;4.25;;
71806;SDS011;59655;42.590;23.364;2023-08-06T01:05:31;6.25;;;4.13;;
71806;SDS011;59655;42.590;23.364;2023-08-06T01:10:59;6.50;;;3.90;;
71806;SDS011;59655;42.590;23.364;2023-08-06T01:13:42;7.70;;;3.50;;
71806;SDS011;59655;42.590;23.364;2023-08-06T01:16:12;6.18;;;3.83;;
71806;SDS011;59655;42.590;23.364;2023-08-06T01:18:41;6.38;;;3.92;;
71806;SDS011;59655;42.590;23.364;2023-08-06T01:21:11;11.95;;;3.85;;
71806;SDS011;59655;42.590;23.364;2023-08-06T01:23:37;5.35;;;3.67;;
71806;SDS011;59655;42.590;23.364;2023-08-06T01:28:40;5.68;;;3.90;;
71806;SDS011;59655;42.590;23.364;2023-08-06T01:31:21;7.85;;;4.60;;
71806;SDS011;59655;42.590;23.364;2023-08-06T01:33:49;9.15;;;4.63;;
71806;SDS011;59655;42.590;23.364;2023-08-06T01:36:16;7.13;;;5.13;;
71806;SDS011;59655;42.590;23.364;2023-08-06T01:38:43;8.38;;;4.93;;
71806;SDS011;59655;42.590;23.364;2023-08-06T01:41:09;6.97;;;4.43;;
71806;SDS011;59655;42.590;23.364;2023-08-06T01:43:34;6.75;;;4.72;;
71806;SDS011;59655;42.590;23.364;2023-08-06T01:46:00;6.93;;;4.57;;
71806;SDS011;59655;42.590;23.364;2023-08-06T01:48:25;6.68;;;4.50;;
71806;SDS011;59655;42.590;23.364;2023-08-06T01:50:50;10.40;;;4.93;;
71806;SDS011;59655;42.590;23.364;2023-08-06T01:53:16;7.18;;;4.88;;
71806;SDS011;59655;42.590;23.364;2023-08-06T01:55:41;7.07;;;4.38;;
71806;SDS011;59655;42.590;23.364;2023-08-06T01:58:06;8.55;;;4.85;;
71806;SDS011;59655;42.590;23.364;2023-08-06T02:00:32;6.75;;;4.40;;
71806;SDS011;59655;42.590;23.364;2023-08-06T02:02:57;6.28;;;5.07;;
71806;SDS011;59655;42.590;23.364;2023-08-06T02:05:23;8.93;;;4.88;;
71806;SDS011;59655;42.590;23.364;2023-08-06T02:07:48;7.18;;;5.15;;
71806;SDS011;59655;42.590;23.364;2023-08-06T02:10:14;8.07;;;4.93;;
71806;SDS011;59655;42.590;23.364;2023-08-06T02:12:39;8.23;;;4.95;;
71806;SDS011;59655;42.590;23.364;2023-08-06T02:15:05;8.68;;;4.85;;
71806;SDS011;59655;42.590;23.364;2023-08-06T02:17:30;7.38;;;4.35;;
71806;SDS011;59655;42.590;23.364;2023-08-06T02:19:56;6.45;;;4.32;;
71806;SDS011;59655;42.590;23.364;2023-08-06T02:22:22;6.43;;;3.42;;
71806;SDS011;59655;42.590;23.364;2023-08-06T02:24:49;5.03;;;3.40;;
71806;SDS011;59655;42.590;23.364;2023-08-06T02:27:14;5.10;;;3.50;;
71806;SDS011;59655;42.590;23.364;2023-08-06T02:29:40;5.97;;;3.63;;
71806;SDS011;59655;42.590;23.364;2023-08-06T02:32:06;5.38;;;3.67;;
71806;SDS011;59655;42.590;23.364;2023-08-06T02:34:32;5.43;;;3.33;;
71806;SDS011;59655;42.590;23.364;2023-08-06T02:36:57;6.88;;;3.40;;
71806;SDS011;59655;42.590;23.364;2023-08-06T02:39:23;5.53;;;3.63;;
71806;SDS011;59655;42.590;23.364;2023-08-06T02:41:48;6.07;;;3.90;;
71806;SDS011;59655;42.590;23.364;2023-08-06T02:44:13;5.20;;;3.80;;
71806;SDS011;59655;42.590;23.364;2023-08-06T02:46:39;6.13;;;3.55;;
71806;SDS011;59655;42.590;23.364;2023-08-06T02:49:04;6.45;;;3.90;;
71806;SDS011;59655;42.590;23.364;2023-08-06T02:51:31;5.72;;;3.70;;
71806;SDS011;59655;42.590;23.364;2023-08-06T02:53:57;5.65;;;3.97;;
71806;SDS011;59655;42.590;23.364;2023-08-06T02:56:22;5.72;;;4.07;;
71806;SDS011;59655;42.590;23.364;2023-08-06T02:58:47;4.68;;;3.40;;
71806;SDS011;59655;42.590;23.364;2023-08-06T03:01:13;6.22;;;3.72;;
71806;SDS011;59655;42.590;23.364;2023-08-06T03:03:39;4.97;;;3.42;;
71806;SDS011;59655;42.590;23.364;2023-08-06T03:06:04;6.30;;;4.05;;
71806;SDS011;59655;42.590;23.364;2023-08-06T03:08:30;4.82;;;3.20;;
71806;SDS011;59655;42.590;23.364;2023-08-06T03:10:55;5.43;;;3.00;;
71806;SDS011;59655;42.590;23.364;2023-08-06T03:13:21;5.07;;;3.22;;
71806;SDS011;59655;42.590;23.364;2023-08-06T03:15:56;4.63;;;2.72;;
71806;SDS011;59655;42.590;23.364;2023-08-06T03:18:23;4.43;;;2.85;;
71806;SDS011;59655;42.590;23.364;2023-08-06T03:20:50;5.63;;;2.95;;
71806;SDS011;59655;42.590;23.364;2023-08-06T03:23:16;6.50;;;3.28;;
71806;SDS011;59655;42.590;23.364;2023-08-06T03:25:42;5.60;;;3.47;;
71806;SDS011;59655;42.590;23.364;2023-08-06T03:28:08;5.38;;;3.30;;
71806;SDS011;59655;42.590;23.364;2023-08-06T03:30:33;4.40;;;3.00;;
71806;SDS011;59655;42.590;23.364;2023-08-06T03:32:59;8.15;;;3.67;;
71806;SDS011;59655;42.590;23.364;2023-08-06T03:35:25;7.13;;;3.17;;
71806;SDS011;59655;42.590;23.364;2023-08-06T03:37:50;8.02;;;3.78;;
71806;SDS011;59655;42.590;23.364;2023-08-06T03:40:16;5.35;;;3.42;;
71806;SDS011;59655;42.590;23.364;2023-08-06T03:42:41;6.85;;;3.58;;
71806;SDS011;59655;42.590;23.364;2023-08-06T03:45:07;5.97;;;3.53;;
71806;SDS011;59655;42.590;23.364;2023-08-06T03:47:33;5.07;;;3.40;;
71806;SDS011;59655;42.590;23.364;2023-08-06T03:49:58;4.95;;;3.25;;
71806;SDS011;59655;42.590;23.364;2023-08-06T03:52:23;4.93;;;3.35;;
71806;SDS011;59655;42.590;23.364;2023-08-06T03:54:49;5.53;;;3.38;;
71806;SDS011;59655;42.590;23.364;2023-08-06T03:57:14;4.75;;;2.97;;
71806;SDS011;59655;42.590;23.364;2023-08-06T03:59:40;4.10;;;2.72;;
71806;SDS011;59655;42.590;23.364;2023-08-06T04:02:06;3.03;;;2.10;;
71806;SDS011;59655;42.590;23.364;2023-08-06T04:04:31;4.15;;;2.58;;
71806;SDS011;59655;42.590;23.364;2023-08-06T04:06:57;3.45;;;2.30;;
71806;SDS011;59655;42.590;23.364;2023-08-06T04:09:22;4.35;;;2.45;;
71806;SDS011;59655;42.590;23.364;2023-08-06T04:11:47;4.45;;;2.00;;
71806;SDS011;59655;42.590;23.364;2023-08-06T04:14:13;3.67;;;2.50;;
71806;SDS011;59655;42.590;23.364;2023-08-06T04:16:38;3.88;;;2.33;;
71806;SDS011;59655;42.590;23.364;2023-08-06T04:19:04;5.25;;;2.55;;
71806;SDS011;59655;42.590;23.364;2023-08-06T04:21:29;5.00;;;2.28;;
71806;SDS011;59655;42.590;23.364;2023-08-06T04:23:55;5.00;;;2.13;;
71806;SDS011;59655;42.590;23.364;2023-08-06T04:26:21;5.50;;;2.30;;
71806;SDS011;59655;42.590;23.364;2023-08-06T04:28:47;3.17;;;2.20;;
71806;SDS011;59655;42.590;23.364;2023-08-06T04:31:12;4.75;;;2.83;;
71806;SDS011;59655;42.590;23.364;2023-08-06T04:33:38;5.72;;;2.92;;
71806;SDS011;59655;42.590;23.364;2023-08-06T04:36:03;4.95;;;2.90;;
71806;SDS011;59655;42.590;23.364;2023-08-06T04:38:29;4.68;;;2.80;;
71806;SDS011;59655;42.590;23.364;2023-08-06T04:40:54;5.57;;;2.83;;
71806;SDS011;59655;42.590;23.364;2023-08-06T04:43:19;3.95;;;2.63;;
71806;SDS011;59655;42.590;23.364;2023-08-06T04:45:45;3.35;;;2.42;;
71806;SDS011;59655;42.590;23.364;2023-08-06T04:48:12;4.15;;;3.20;;
71806;SDS011;59655;42.590;23.364;2023-08-06T04:50:37;5.10;;;2.65;;
71806;SDS011;59655;42.590;23.364;2023-08-06T04:53:03;5.07;;;2.65;;
71806;SDS011;59655;42.590;23.364;2023-08-06T04:55:28;4.60;;;2.83;;
71806;SDS011;59655;42.590;23.364;2023-08-06T04:57:53;4.80;;;2.75;;
71806;SDS011;59655;42.590;23.364;2023-08-06T05:00:19;4.30;;;3.03;;
71806;SDS011;59655;42.590;23.364;2023-08-06T05:02:44;6.00;;;3.28;;
71806;SDS011;59655;42.590;23.364;2023-08-06T05:05:09;5.32;;;3.22;;
71806;SDS011;59655;42.590;23.364;2023-08-06T05:07:35;5.05;;;3.72;;
71806;SDS011;59655;42.590;23.364;2023-08-06T05:10:00;6.55;;;3.75;;
71806;SDS011;59655;42.590;23.364;2023-08-06T05:12:26;5.00;;;3.78;;
71806;SDS011;59655;42.590;23.364;2023-08-06T05:14:51;6.93;;;4.07;;
71806;SDS011;59655;42.590;23.364;2023-08-06T05:17:16;6.07;;;4.45;;
71806;SDS011;59655;42.590;23.364;2023-08-06T05:19:42;6.10;;;4.40;;
71806;SDS011;59655;42.590;23.364;2023-08-06T05:22:07;5.75;;;4.35;;
71806;SDS011;59655;42.590;23.364;2023-08-06T05:24:32;7.80;;;4.38;;
71806;SDS011;59655;42.590;23.364;2023-08-06T05:26:58;6.55;;;4.13;;
71806;SDS011;59655;42.590;23.364;2023-08-06T05:29:23;6.10;;;4.20;;
71806;SDS011;59655;42.590;23.364;2023-08-06T05:31:49;7.72;;;4.35;;
71806;SDS011;59655;42.590;23.364;2023-08-06T05:34:14;6.70;;;4.43;;
71806;SDS011;59655;42.590;23.364;2023-08-06T05:36:39;6.53;;;4.70;;
71806;SDS011;59655;42.590;23.364;2023-08-06T05:39:05;5.82;;;4.25;;
71806;SDS011;59655;42.590;23.364;2023-08-06T05:41:30;6.35;;;4.57;;
71806;SDS011;59655;42.590;23.364;2023-08-06T05:43:56;7.47;;;4.70;;
71806;SDS011;59655;42.590;23.364;2023-08-06T05:46:21;6.32;;;4.57;;
71806;SDS011;59655;42.590;23.364;2023-08-06T05:48:46;6.85;;;4.75;;
71806;SDS011;59655;42.590;23.364;2023-08-06T05:51:12;8.82;;;5.85;;
71806;SDS011;59655;42.590;23.364;2023-08-06T05:53:38;8.40;;;5.93;;
71806;SDS011;59655;42.590;23.364;2023-08-06T05:56:04;8.98;;;7.32;;
71806;SDS011;59655;42.590;23.364;2023-08-06T05:58:29;12.95;;;8.43;;
71806;SDS011;59655;42.590;23.364;2023-08-06T06:00:55;11.00;;;9.52;;
71806;SDS011;59655;42.590;23.364;2023-08-06T06:03:21;11.75;;;8.57;;
71806;SDS011;59655;42.590;23.364;2023-08-06T06:05:47;9.40;;;8.05;;
71806;SDS011;59655;42.590;23.364;2023-08-06T06:08:13;9.98;;;8.93;;
71806;SDS011;59655;42.590;23.364;2023-08-06T06:10:38;17.27;;;11.73;;
71806;SDS011;59655;42.590;23.364;2023-08-06T06:13:03;15.65;;;12.35;;
71806;SDS011;59655;42.590;23.364;2023-08-06T06:15:29;13.38;;;12.07;;
71806;SDS011;59655;42.590;23.364;2023-08-06T06:17:54;15.70;;;12.68;;
71806;SDS011;59655;42.590;23.364;2023-08-06T06:20:20;13.88;;;10.77;;
71806;SDS011;59655;42.590;23.364;2023-08-06T06:22:45;10.80;;;9.50;;
71806;SDS011;59655;42.590;23.364;2023-08-06T06:25:10;12.85;;;9.23;;
71806;SDS011;59655;42.590;23.364;2023-08-06T06:27:36;11.52;;;10.23;;
71806;SDS011;59655;42.590;23.364;2023-08-06T06:30:01;13.05;;;9.70;;
71806;SDS011;59655;42.590;23.364;2023-08-06T06:32:27;13.45;;;10.35;;
71806;SDS011;59655;42.590;23.364;2023-08-06T06:34:52;12.40;;;11.07;;
71806;SDS011;59655;42.590;23.364;2023-08-06T06:37:19;13.15;;;9.13;;
71806;SDS011;59655;42.590;23.364;2023-08-06T06:39:44;11.95;;;10.40;;
71806;SDS011;59655;42.590;23.364;2023-08-06T06:42:10;11.80;;;10.27;;
71806;SDS011;59655;42.590;23.364;2023-08-06T06:44:35;14.00;;;11.20;;
71806;SDS011;59655;42.590;23.364;2023-08-06T06:47:01;13.07;;;11.75;;
71806;SDS011;59655;42.590;23.364;2023-08-06T06:49:26;12.73;;;11.43;;
71806;SDS011;59655;42.590;23.364;2023-08-06T06:51:52;12.65;;;11.32;;
71806;SDS011;59655;42.590;23.364;2023-08-06T06:54:17;14.52;;;12.98;;
71806;SDS011;59655;42.590;23.364;2023-08-06T06:56:43;16.98;;;12.63;;
71806;SDS011;59655;42.590;23.364;2023-08-06T06:59:08;15.35;;;12.55;;
71806;SDS011;59655;42.590;23.364;2023-08-06T07:01:33;16.58;;;12.95;;
71806;SDS011;59655;42.590;23.364;2023-08-06T07:03:59;17.55;;;12.45;;
71806;SDS011;59655;42.590;23.364;2023-08-06T07:06:29;21.23;;;10.73;;
71806;SDS011;59655;42.590;23.364;2023-08-06T07:08:55;14.80;;;10.15;;
71806;SDS011;59655;42.590;23.364;2023-08-06T07:11:20;12.93;;;8.85;;
71806;SDS011;59655;42.590;23.364;2023-08-06T07:13:46;11.50;;;8.35;;
71806;SDS011;59655;42.590;23.364;2023-08-06T07:16:11;13.70;;;8.57;;
71806;SDS011;59655;42.590;23.364;2023-08-06T07:18:36;12.05;;;8.30;;
71806;SDS011;59655;42.590;23.364;2023-08-06T07:21:02;13.00;;;8.68;;
71806;SDS011;59655;42.590;23.364;2023-08-06T07:23:27;9.88;;;7.93;;
71806;SDS011;59655;42.590;23.364;2023-08-06T07:25:53;12.40;;;8.55;;
71806;SDS011;59655;42.590;23.364;2023-08-06T07:28:18;10.20;;;8.05;;
71806;SDS011;59655;42.590;23.364;2023-08-06T07:30:44;11.38;;;8.85;;
71806;SDS011;59655;42.590;23.364;2023-08-06T07:33:10;12.80;;;9.63;;
71806;SDS011;59655;42.590;23.364;2023-08-06T07:35:36;12.38;;;8.60;;
71806;SDS011;59655;42.590;23.364;2023-08-06T07:38:02;13.98;;;9.02;;
71806;SDS011;59655;42.590;23.364;2023-08-06T07:40:28;11.48;;;8.65;;
71806;SDS011;59655;42.590;23.364;2023-08-06T07:42:54;12.27;;;9.02;;
71806;SDS011;59655;42.590;23.364;2023-08-06T07:45:19;13.23;;;10.18;;
71806;SDS011;59655;42.590;23.364;2023-08-06T07:47:45;10.95;;;9.10;;
71806;SDS011;59655;42.590;23.364;2023-08-06T07:50:10;10.75;;;8.73;;
71806;SDS011;59655;42.590;23.364;2023-08-06T07:52:36;13.95;;;9.73;;
71806;SDS011;59655;42.590;23.364;2023-08-06T07:55:01;11.50;;;9.70;;
71806;SDS011;59655;42.590;23.364;2023-08-06T07:57:30;12.15;;;10.15;;
71806;SDS011;59655;42.590;23.364;2023-08-06T07:59:56;11.55;;;9.63;;
71806;SDS011;59655;42.590;23.364;2023-08-06T08:02:21;12.57;;;8.85;;
71806;SDS011;59655;42.590;23.364;2023-08-06T08:04:47;12.02;;;9.23;;
71806;SDS011;59655;42.590;23.364;2023-08-06T08:07:12;10.77;;;8.82;;
71806;SDS011;59655;42.590;23.364;2023-08-06T08:09:38;12.18;;;8.98;;
71806;SDS011;59655;42.590;23.364;2023-08-06T08:12:04;12.05;;;9.02;;
71806;SDS011;59655;42.590;23.364;2023-08-06T08:14:29;12.02;;;8.32;;
71806;SDS011;59655;42.590;23.364;2023-08-06T08:17:00;12.77;;;9.25;;
71806;SDS011;59655;42.590;23.364;2023-08-06T08:19:27;13.25;;;8.25;;
71806;SDS011;59655;42.590;23.364;2023-08-06T08:21:53;7.65;;;6.32;;
71806;SDS011;59655;42.590;23.364;2023-08-06T08:24:19;7.53;;;5.07;;
71806;SDS011;59655;42.590;23.364;2023-08-06T08:26:45;5.10;;;3.97;;
71806;SDS011;59655;42.590;23.364;2023-08-06T08:29:10;6.88;;;4.70;;
71806;SDS011;59655;42.590;23.364;2023-08-06T08:31:35;5.38;;;3.45;;
71806;SDS011;59655;42.590;23.364;2023-08-06T08:34:04;5.75;;;3.53;;
71806;SDS011;59655;42.590;23.364;2023-08-06T08:36:30;6.35;;;4.10;;
71806;SDS011;59655;42.590;23.364;2023-08-06T08:38:56;6.32;;;4.32;;
71806;SDS011;59655;42.590;23.364;2023-08-06T08:41:21;6.80;;;4.55;;
71806;SDS011;59655;42.590;23.364;2023-08-06T08:43:47;7.20;;;5.57;;
71806;SDS011;59655;42.590;23.364;2023-08-06T08:46:17;11.48;;;6.90;;
71806;SDS011;59655;42.590;23.364;2023-08-06T08:48:46;7.90;;;6.72;;
71806;SDS011;59655;42.590;23.364;2023-08-06T08:51:12;10.43;;;6.82;;
71806;SDS011;59655;42.590;23.364;2023-08-06T08:53:38;7.90;;;6.10;;
71806;SDS011;59655;42.590;23.364;2023-08-06T08:56:04;7.60;;;6.32;;
71806;SDS011;59655;42.590;23.364;2023-08-06T08:58:30;7.68;;;5.78;;
71806;SDS011;59655;42.590;23.364;2023-08-06T09:00:56;8.00;;;5.35;;
71806;SDS011;59655;42.590;23.364;2023-08-06T09:03:23;5.68;;;4.57;;
71806;SDS011;59655;42.590;23.364;2023-08-06T09:05:49;5.13;;;4.03;;
71806;SDS011;59655;42.590;23.364;2023-08-06T09:08:18;6.35;;;4.82;;
71806;SDS011;59655;42.590;23.364;2023-08-06T09:10:47;6.78;;;4.40;;
71806;SDS011;59655;42.590;23.364;2023-08-06T09:18:10;5.37;;;3.90;;
71806;SDS011;59655;42.590;23.364;2023-08-06T09:20:37;4.78;;;4.07;;
71806;SDS011;59655;42.590;23.364;2023-08-06T09:23:09;4.43;;;3.53;;
71806;SDS011;59655;42.590;23.364;2023-08-06T09:25:37;6.28;;;3.53;;
71806;SDS011;59655;42.590;23.364;2023-08-06T09:28:04;5.43;;;3.97;;
71806;SDS011;59655;42.590;23.364;2023-08-06T09:30:31;5.63;;;3.53;;
71806;SDS011;59655;42.590;23.364;2023-08-06T09:33:01;5.18;;;3.45;;
71806;SDS011;59655;42.590;23.364;2023-08-06T09:35:30;5.47;;;3.40;;
71806;SDS011;59655;42.590;23.364;2023-08-06T09:38:06;5.78;;;3.50;;
71806;SDS011;59655;42.590;23.364;2023-08-06T09:40:32;4.55;;;3.38;;
71806;SDS011;59655;42.590;23.364;2023-08-06T09:42:58;5.18;;;3.45;;
71806;SDS011;59655;42.590;23.364;2023-08-06T09:45:37;6.07;;;3.33;;
71806;SDS011;59655;42.590;23.364;2023-08-06T09:48:03;5.55;;;3.70;;
71806;SDS011;59655;42.590;23.364;2023-08-06T09:50:31;4.65;;;3.20;;
71806;SDS011;59655;42.590;23.364;2023-08-06T09:52:57;4.78;;;3.17;;
71806;SDS011;59655;42.590;23.364;2023-08-06T09:55:24;5.55;;;3.85;;
71806;SDS011;59655;42.590;23.364;2023-08-06T09:57:52;5.57;;;3.35;;
71806;SDS011;59655;42.590;23.364;2023-08-06T10:00:18;5.70;;;3.97;;
71806;SDS011;59655;42.590;23.364;2023-08-06T10:02:45;5.20;;;3.22;;
71806;SDS011;59655;42.590;23.364;2023-08-06T10:05:11;5.38;;;3.60;;
71806;SDS011;59655;42.590;23.364;2023-08-06T10:07:37;4.65;;;3.83;;
71806;SDS011;59655;42.590;23.364;2023-08-06T10:10:06;5.80;;;4.22;;
71806;SDS011;59655;42.590;23.364;2023-08-06T10:12:33;4.82;;;3.83;;
71806;SDS011;59655;42.590;23.364;2023-08-06T10:15:01;6.78;;;4.47;;
71806;SDS011;59655;42.590;23.364;2023-08-06T10:17:31;5.55;;;4.43;;
71806;SDS011;59655;42.590;23.364;2023-08-06T10:19:58;6.00;;;5.40;;
71806;SDS011;59655;42.590;23.364;2023-08-06T10:22:24;3.95;;;3.55;;
71806;SDS011;59655;42.590;23.364;2023-08-06T10:24:54;6.10;;;4.85;;
71806;SDS011;59655;42.590;23.364;2023-08-06T10:30:19;5.40;;;2.92;;
71806;SDS011;59655;42.590;23.364;2023-08-06T10:32:54;5.63;;;3.42;;
71806;SDS011;59655;42.590;23.364;2023-08-06T10:40:31;6.30;;;3.28;;
71806;SDS011;59655;42.590;23.364;2023-08-06T10:43:01;5.93;;;4.10;;
71806;SDS011;59655;42.590;23.364;2023-08-06T10:47:59;6.88;;;4.63;;
71806;SDS011;59655;42.590;23.364;2023-08-06T10:50:24;7.43;;;4.38;;
71806;SDS011;59655;42.590;23.364;2023-08-06T10:52:50;6.43;;;4.47;;
71806;SDS011;59655;42.590;23.364;2023-08-06T10:55:23;7.65;;;4.82;;
71806;SDS011;59655;42.590;23.364;2023-08-06T10:57:49;5.85;;;4.53;;
71806;SDS011;59655;42.590;23.364;2023-08-06T11:00:15;6.60;;;4.85;;
71806;SDS011;59655;42.590;23.364;2023-08-06T11:02:41;5.10;;;4.00;;
71806;SDS011;59655;42.590;23.364;2023-08-06T11:05:07;5.10;;;4.13;;
71806;SDS011;59655;42.590;23.364;2023-08-06T11:07:34;7.55;;;4.80;;
71806;SDS011;59655;42.590;23.364;2023-08-06T11:10:04;7.00;;;5.47;;
71806;SDS011;59655;42.590;23.364;2023-08-06T11:12:32;7.32;;;5.57;;
71806;SDS011;59655;42.590;23.364;2023-08-06T11:14:58;7.53;;;5.28;;
71806;SDS011;59655;42.590;23.364;2023-08-06T11:17:23;6.70;;;4.43;;
71806;SDS011;59655;42.590;23.364;2023-08-06T11:19:49;7.47;;;4.20;;
71806;SDS011;59655;42.590;23.364;2023-08-06T11:22:15;6.80;;;4.00;;
71806;SDS011;59655;42.590;23.364;2023-08-06T11:24:41;5.15;;;3.63;;
71806;SDS011;59655;42.590;23.364;2023-08-06T11:27:13;5.95;;;3.83;;
71806;SDS011;59655;42.590;23.364;2023-08-06T11:29:40;5.25;;;3.10;;
71806;SDS011;59655;42.590;23.364;2023-08-06T11:32:06;5.85;;;3.80;;
71806;SDS011;59655;42.590;23.364;2023-08-06T11:34:32;7.65;;;3.42;;
71806;SDS011;59655;42.590;23.364;2023-08-06T11:36:57;6.10;;;3.67;;
71806;SDS011;59655;42.590;23.364;2023-08-06T11:39:23;4.50;;;2.60;;
71806;SDS011;59655;42.590;23.364;2023-08-06T11:41:49;4.95;;;2.90;;
71806;SDS011;59655;42.590;23.364;2023-08-06T11:44:14;4.53;;;2.88;;
71806;SDS011;59655;42.590;23.364;2023-08-06T11:46:49;4.32;;;2.65;;
71806;SDS011;59655;42.590;23.364;2023-08-06T11:49:20;4.93;;;3.15;;
71806;SDS011;59655;42.590;23.364;2023-08-06T11:51:47;6.72;;;3.10;;
71806;SDS011;59655;42.590;23.364;2023-08-06T11:54:13;4.30;;;3.25;;
71806;SDS011;59655;42.590;23.364;2023-08-06T11:56:38;5.47;;;3.20;;
71806;SDS011;59655;42.590;23.364;2023-08-06T11:59:04;6.20;;;4.95;;
71806;SDS011;59655;42.590;23.364;2023-08-06T12:01:30;5.68;;;3.50;;
71806;SDS011;59655;42.590;23.364;2023-08-06T12:03:59;6.90;;;3.25;;
71806;SDS011;59655;42.590;23.364;2023-08-06T12:06:27;5.82;;;3.38;;
71806;SDS011;59655;42.590;23.364;2023-08-06T12:08:53;5.30;;;3.30;;
71806;SDS011;59655;42.590;23.364;2023-08-06T12:11:20;6.70;;;3.28;;
71806;SDS011;59655;42.590;23.364;2023-08-06T12:13:46;5.20;;;3.08;;
71806;SDS011;59655;42.590;23.364;2023-08-06T12:16:16;8.25;;;3.35;;
71806;SDS011;59655;42.590;23.364;2023-08-06T12:21:09;5.70;;;2.53;;
71806;SDS011;59655;42.590;23.364;2023-08-06T12:23:34;5.22;;;2.88;;
71806;SDS011;59655;42.590;23.364;2023-08-06T12:25:59;7.00;;;3.25;;
71806;SDS011;59655;42.590;23.364;2023-08-06T12:28:25;7.35;;;3.03;;
71806;SDS011;59655;42.590;23.364;2023-08-06T12:30:50;6.20;;;3.95;;
71806;SDS011;59655;42.590;23.364;2023-08-06T12:33:22;6.03;;;3.85;;
71806;SDS011;59655;42.590;23.364;2023-08-06T12:35:48;5.57;;;3.88;;
71806;SDS011;59655;42.590;23.364;2023-08-06T12:38:13;5.40;;;3.80;;
71806;SDS011;59655;42.590;23.364;2023-08-06T12:40:39;6.97;;;4.10;;
71806;SDS011;59655;42.590;23.364;2023-08-06T12:43:04;6.32;;;4.65;;
71806;SDS011;59655;42.590;23.364;2023-08-06T12:45:30;5.93;;;4.25;;
71806;SDS011;59655;42.590;23.364;2023-08-06T12:47:55;7.55;;;4.40;;
71806;SDS011;59655;42.590;23.364;2023-08-06T12:50:21;6.70;;;4.68;;
71806;SDS011;59655;42.590;23.364;2023-08-06T12:52:47;6.88;;;4.75;;
71806;SDS011;59655;42.590;23.364;2023-08-06T12:55:13;7.10;;;4.20;;
71806;SDS011;59655;42.590;23.364;2023-08-06T12:57:38;9.30;;;5.30;;
71806;SDS011;59655;42.590;23.364;2023-08-06T13:00:04;7.15;;;4.90;;
71806;SDS011;59655;42.590;23.364;2023-08-06T13:02:30;6.38;;;4.95;;
71806;SDS011;59655;42.590;23.364;2023-08-06T13:04:55;7.45;;;5.13;;
71806;SDS011;59655;42.590;23.364;2023-08-06T13:07:21;6.70;;;5.22;;
71806;SDS011;59655;42.590;23.364;2023-08-06T13:09:46;6.68;;;4.47;;
71806;SDS011;59655;42.590;23.364;2023-08-06T13:12:11;6.00;;;4.70;;
71806;SDS011;59655;42.590;23.364;2023-08-06T13:14:37;6.32;;;4.85;;
71806;SDS011;59655;42.590;23.364;2023-08-06T13:17:02;6.57;;;4.90;;
71806;SDS011;59655;42.590;23.364;2023-08-06T13:19:31;6.82;;;4.25;;
71806;SDS011;59655;42.590;23.364;2023-08-06T13:22:01;8.25;;;4.57;;
71806;SDS011;59655;42.590;23.364;2023-08-06T13:24:32;5.20;;;3.78;;
71806;SDS011;59655;42.590;23.364;2023-08-06T13:26:57;6.90;;;4.13;;
71806;SDS011;59655;42.590;23.364;2023-08-06T13:29:24;5.85;;;4.20;;
71806;SDS011;59655;42.590;23.364;2023-08-06T13:31:50;5.55;;;4.13;;
71806;SDS011;59655;42.590;23.364;2023-08-06T13:34:16;6.13;;;3.85;;
71806;SDS011;59655;42.590;23.364;2023-08-06T13:36:41;4.97;;;4.22;;
71806;SDS011;59655;42.590;23.364;2023-08-06T13:39:07;6.35;;;4.32;;
71806;SDS011;59655;42.590;23.364;2023-08-06T13:41:32;5.70;;;4.10;;
71806;SDS011;59655;42.590;23.364;2023-08-06T13:43:58;7.63;;;4.32;;
71806;SDS011;59655;42.590;23.364;2023-08-06T13:46:24;7.47;;;4.78;;
71806;SDS011;59655;42.590;23.364;2023-08-06T13:48:49;5.97;;;4.70;;
71806;SDS011;59655;42.590;23.364;2023-08-06T13:51:18;6.30;;;4.57;;
71806;SDS011;59655;42.590;23.364;2023-08-06T13:53:44;6.53;;;4.93;;
71806;SDS011;59655;42.590;23.364;2023-08-06T13:56:09;6.90;;;4.88;;
71806;SDS011;59655;42.590;23.364;2023-08-06T13:58:36;7.15;;;5.10;;
71806;SDS011;59655;42.590;23.364;2023-08-06T14:01:02;6.18;;;4.40;;
71806;SDS011;59655;42.590;23.364;2023-08-06T14:03:27;6.00;;;4.82;;
71806;SDS011;59655;42.590;23.364;2023-08-06T14:05:53;7.00;;;4.78;;
71806;SDS011;59655;42.590;23.364;2023-08-06T14:08:21;5.55;;;4.30;;
71806;SDS011;59655;42.590;23.364;2023-08-06T14:10:47;5.43;;;4.15;;
71806;SDS011;59655;42.590;23.364;2023-08-06T14:13:12;5.30;;;4.13;;
71806;SDS011;59655;42.590;23.364;2023-08-06T14:15:38;6.65;;;4.20;;
71806;SDS011;59655;42.590;23.364;2023-08-06T14:18:05;6.32;;;4.50;;
71806;SDS011;59655;42.590;23.364;2023-08-06T14:20:31;6.25;;;4.63;;
71806;SDS011;59655;42.590;23.364;2023-08-06T14:22:56;6.03;;;4.82;;
71806;SDS011;59655;42.590;23.364;2023-08-06T14:25:22;9.02;;;4.47;;
71806;SDS011;59655;42.590;23.364;2023-08-06T14:27:47;8.10;;;4.60;;
71806;SDS011;59655;42.590;23.364;2023-08-06T14:30:13;6.07;;;4.30;;
71806;SDS011;59655;42.590;23.364;2023-08-06T14:32:38;5.55;;;4.50;;
71806;SDS011;59655;42.590;23.364;2023-08-06T14:35:04;7.35;;;4.95;;
71806;SDS011;59655;42.590;23.364;2023-08-06T14:37:30;5.78;;;4.53;;
71806;SDS011;59655;42.590;23.364;2023-08-06T14:39:55;7.15;;;4.40;;
71806;SDS011;59655;42.590;23.364;2023-08-06T14:42:21;6.47;;;4.15;;
71806;SDS011;59655;42.590;23.364;2023-08-06T14:44:46;7.72;;;4.28;;
71806;SDS011;59655;42.590;23.364;2023-08-06T14:47:11;5.43;;;4.13;;